sensor_id;sensor_type;location;lat;lon;timestamp;pressure;altitude;pressure_sealevel;temperature;humidity
74437;BME280;62868;52.360;30.424;2024-02-04T00:04:07;1008.4;;;6.2;65
74437;BME280;62868;52.360;30.424;2024-02-04T00:09:37;1008.5;;;6.2;64.9
74437;BME280;62868;52.360;30.424;2024-02-04T00:14:29;1008.6;;;6.2;64.9
74437;BME280;62868;52.360;30.424;2024-02-04T00:19:37;1008.6;;;6.2;64.8
74437;BME280;62868;52.360;30.424;2024-02-04T00:24:16;1008.5;;;6.2;64.8
74437;BME280;62868;52.360;30.424;2024-02-04T00:29:37;1008.6;;;6.2;64.7
74437;BME280;62868;52.360;30.424;2024-02-04T00:34:25;1008.6;;;6.2;64.7
74437;BME280;62868;52.360;30.424;2024-02-04T00:39:29;1008.6;;;6.2;64.6
74437;BME280;62868;52.360;30.424;2024-02-04T00:44:15;1008.7;;;6.2;64.6
74437;BME280;62868;52.360;30.424;2024-02-04T00:49:25;1008.7;;;6.2;64.6
74437;BME280;62868;52.360;30.424;2024-02-04T00:54:37;1008.7;;;6.2;64.5
74437;BME280;62868;52.360;30.424;2024-02-04T00:59:13;1008.6;;;6.2;64.5
74437;BME280;62868;52.360;30.424;2024-02-04T01:04:17;1008.6;;;6.2;64.5
74437;BME280;62868;52.360;30.424;2024-02-04T01:09:37;1008.6;;;6.2;64.5
74437;BME280;62868;52.360;30.424;2024-02-04T01:14:37;1008.6;;;6.1;64.5
74437;BME280;62868;52.360;30.424;2024-02-04T01:19:29;1008.6;;;6;64.5
74437;BME280;62868;52.360;30.424;2024-02-04T01:24:17;1008.5;;;6;64.5
74437;BME280;62868;52.360;30.424;2024-02-04T01:29:08;1008.6;;;6;64.5
74437;BME280;62868;52.360;30.424;2024-02-04T01:34:19;1008.6;;;5.9;64.5
74437;BME280;62868;52.360;30.424;2024-02-04T01:39:15;1008.7;;;5.9;64.5
74437;BME280;62868;52.360;30.424;2024-02-04T01:44:21;1008.8;;;5.9;64.5
74437;BME280;62868;52.360;30.424;2024-02-04T01:49:15;1008.8;;;5.9;64.4
74437;BME280;62868;52.360;30.424;2024-02-04T01:54:37;1008.8;;;5.9;64.4
74437;BME280;62868;52.360;30.424;2024-02-04T01:59:15;1008.8;;;5.9;64.5
74437;BME280;62868;52.360;30.424;2024-02-04T02:04:38;1008.8;;;5.8;64.5
74437;BME280;62868;52.360;30.424;2024-02-04T02:09:07;1008.7;;;5.7;64.6
74437;BME280;62868;52.360;30.424;2024-02-04T02:14:31;1008.8;;;5.6;64.7
74437;BME280;62868;52.360;30.424;2024-02-04T02:19:00;1008.8;;;5.5;64.8
74437;BME280;62868;52.360;30.424;2024-02-04T02:24:29;1008.8;;;5.4;64.8
74437;BME280;62868;52.360;30.424;2024-02-04T02:29:38;1008.8;;;5.3;64.9
74437;BME280;62868;52.360;30.424;2024-02-04T02:34:29;1008.9;;;5.2;64.9
74437;BME280;62868;52.360;30.424;2024-02-04T02:39:40;1008.9;;;5.2;65
74437;BME280;62868;52.360;30.424;2024-02-04T02:44:38;1008.8;;;5.1;65
74437;BME280;62868;52.360;30.424;2024-02-04T02:49:38;1008.7;;;5.1;65.1
74437;BME280;62868;52.360;30.424;2024-02-04T02:54:29;1008.9;;;5;65.1
74437;BME280;62868;52.360;30.424;2024-02-04T02:59:09;1008.9;;;5;65.2
74437;BME280;62868;52.360;30.424;2024-02-04T03:03:59;1009;;;5;65.2
74437;BME280;62868;52.360;30.424;2024-02-04T03:09:07;1009;;;4.9;65.2
74437;BME280;62868;52.360;30.424;2024-02-04T03:14:08;1009;;;4.9;65.2
74437;BME280;62868;52.360;30.424;2024-02-04T03:19:07;1009.1;;;4.9;65.2
74437;BME280;62868;52.360;30.424;2024-02-04T03:23:59;1009;;;4.9;65.2
74437;BME280;62868;52.360;30.424;2024-02-04T03:29:09;1009.1;;;4.8;65.3
74437;BME280;62868;52.360;30.424;2024-02-04T03:33:59;1009.1;;;4.8;65.4
74437;BME280;62868;52.360;30.424;2024-02-04T03:39:37;1009.2;;;4.8;65.4
74437;BME280;62868;52.360;30.424;2024-02-04T03:44:22;1009.3;;;4.8;65.4
74437;BME280;62868;52.360;30.424;2024-02-04T03:49:01;1009.3;;;4.7;65.4
74437;BME280;62868;52.360;30.424;2024-02-04T03:54:07;1009.3;;;4.7;65.4
74437;BME280;62868;52.360;30.424;2024-02-04T03:59:09;1009.3;;;4.8;65.3
74437;BME280;62868;52.360;30.424;2024-02-04T04:04:29;1009.3;;;4.9;65.3
74437;BME280;62868;52.360;30.424;2024-02-04T04:09:25;1009.3;;;5;65.2
74437;BME280;62868;52.360;30.424;2024-02-04T04:14:20;1009.3;;;4.9;65.3
74437;BME280;62868;52.360;30.424;2024-02-04T04:19:30;1009.4;;;4.9;65.4
74437;BME280;62868;52.360;30.424;2024-02-04T04:24:38;1009.4;;;4.9;65.4
74437;BME280;62868;52.360;30.424;2024-02-04T04:29:20;1009.4;;;4.8;65.5
74437;BME280;62868;52.360;30.424;2024-02-04T04:34:09;1009.4;;;4.7;65.5
74437;BME280;62868;52.360;30.424;2024-02-04T04:38:59;1009.5;;;4.7;65.6
74437;BME280;62868;52.360;30.424;2024-02-04T04:44:00;1009.4;;;4.6;65.6
74437;BME280;62868;52.360;30.424;2024-02-04T04:48:59;1009.3;;;4.5;65.6
74437;BME280;62868;52.360;30.424;2024-02-04T04:54:00;1009.3;;;4.5;65.7
74437;BME280;62868;52.360;30.424;2024-02-04T04:59:11;1009.3;;;4.5;65.7
74437;BME280;62868;52.360;30.424;2024-02-04T05:04:30;1009.4;;;4.4;65.8
74437;BME280;62868;52.360;30.424;2024-02-04T05:09:02;1009.3;;;4.4;65.9
74437;BME280;62868;52.360;30.424;2024-02-04T05:14:38;1009.3;;;4.3;65.9
74437;BME280;62868;52.360;30.424;2024-02-04T05:19:37;1009.3;;;4.3;65.9
74437;BME280;62868;52.360;30.424;2024-02-04T05:24:08;1009.4;;;4.2;65.9
74437;BME280;62868;52.360;30.424;2024-02-04T05:29:38;1009.5;;;4.2;66
74437;BME280;62868;52.360;30.424;2024-02-04T05:34:26;1009.5;;;4.1;66
74437;BME280;62868;52.360;30.424;2024-02-04T05:39:30;1009.4;;;4.1;66
74437;BME280;62868;52.360;30.424;2024-02-04T05:44:26;1009.5;;;4.1;66
74437;BME280;62868;52.360;30.424;2024-02-04T05:49:38;1009.5;;;4.1;66
74437;BME280;62868;52.360;30.424;2024-02-04T05:54:30;1009.5;;;4.1;65.9
74437;BME280;62868;52.360;30.424;2024-02-04T05:59:38;1009.5;;;4.2;65.8
74437;BME280;62868;52.360;30.424;2024-02-04T06:04:00;1009.6;;;4.3;65.7
74437;BME280;62868;52.360;30.424;2024-02-04T06:09:30;1009.6;;;4.4;65.6
74437;BME280;62868;52.360;30.424;2024-02-04T06:14:08;1009.7;;;4.5;65.5
74437;BME280;62868;52.360;30.424;2024-02-04T06:19:08;1009.7;;;4.7;65.4
74437;BME280;62868;52.360;30.424;2024-02-04T06:24:00;1009.7;;;4.8;65.2
74437;BME280;62868;52.360;30.424;2024-02-04T06:29:08;1009.6;;;5;65
74437;BME280;62868;52.360;30.424;2024-02-04T06:34:00;1009.6;;;5.1;64.9
74437;BME280;62868;52.360;30.424;2024-02-04T06:39:38;1009.6;;;5.1;64.8
74437;BME280;62868;52.360;30.424;2024-02-04T06:44:28;1009.7;;;5.2;64.6
74437;BME280;62868;52.360;30.424;2024-02-04T06:49:24;1009.7;;;5.4;64.4
74437;BME280;62868;52.360;30.424;2024-02-04T06:54:38;1009.7;;;5.6;64.2
74437;BME280;62868;52.360;30.424;2024-02-04T06:59:16;1009.7;;;5.7;63.9
74437;BME280;62868;52.360;30.424;2024-02-04T07:04:38;1009.8;;;5.9;63.8
74437;BME280;62868;52.360;30.424;2024-02-04T07:09:38;1009.7;;;6;63.7
74437;BME280;62868;52.360;30.424;2024-02-04T07:14:18;1009.8;;;6.1;63.5
74437;BME280;62868;52.360;30.424;2024-02-04T07:19:18;1009.8;;;6.2;63.3
74437;BME280;62868;52.360;30.424;2024-02-04T07:24:26;1009.8;;;6.3;63.1
74437;BME280;62868;52.360;30.424;2024-02-04T07:29:30;1009.8;;;6.5;62.8
74437;BME280;62868;52.360;30.424;2024-02-04T07:34:38;1009.9;;;6.6;62.6
74437;BME280;62868;52.360;30.424;2024-02-04T07:39:20;1009.8;;;6.7;62.5
74437;BME280;62868;52.360;30.424;2024-02-04T07:44:28;1009.8;;;6.8;62.3
74437;BME280;62868;52.360;30.424;2024-02-04T07:49:12;1009.8;;;7;62.1
74437;BME280;62868;52.360;30.424;2024-02-04T07:54:16;1009.8;;;7.1;62
74437;BME280;62868;52.360;30.424;2024-02-04T07:59:30;1009.8;;;7.1;61.9
74437;BME280;62868;52.360;30.424;2024-02-04T08:04:16;1009.7;;;7.1;61.8
74437;BME280;62868;52.360;30.424;2024-02-04T08:09:00;1009.7;;;7.3;61.5
74437;BME280;62868;52.360;30.424;2024-02-04T08:14:16;1009.7;;;7.6;61
74437;BME280;62868;52.360;30.424;2024-02-04T08:19:30;1009.7;;;7.8;60.6
74437;BME280;62868;52.360;30.424;2024-02-04T08:24:08;1009.7;;;7.9;60.5
74437;BME280;62868;52.360;30.424;2024-02-04T08:29:38;1009.7;;;7.7;60.5
74437;BME280;62868;52.360;30.424;2024-02-04T08:34:16;1009.8;;;7.7;60.4
74437;BME280;62868;52.360;30.424;2024-02-04T08:39:38;1009.8;;;7.9;60
74437;BME280;62868;52.360;30.424;2024-02-04T08:44:26;1009.9;;;7.9;59.9
74437;BME280;62868;52.360;30.424;2024-02-04T08:49:38;1009.9;;;7.8;59.7
74437;BME280;62868;52.360;30.424;2024-02-04T08:54:16;1010;;;7.9;59.6
74437;BME280;62868;52.360;30.424;2024-02-04T08:59:26;1009.9;;;8.2;58.9
74437;BME280;62868;52.360;30.424;2024-02-04T09:04:38;1009.9;;;8.8;57.9
74437;BME280;62868;52.360;30.424;2024-02-04T09:09:30;1009.9;;;8.9;57.7
74437;BME280;62868;52.360;30.424;2024-02-04T09:14:00;1009.9;;;8.8;57.7
74437;BME280;62868;52.360;30.424;2024-02-04T09:19:38;1009.9;;;8.5;57.9
74437;BME280;62868;52.360;30.424;2024-02-04T09:24:38;1009.9;;;8.3;57.9
74437;BME280;62868;52.360;30.424;2024-02-04T09:29:30;1010;;;8.1;57.8
74437;BME280;62868;52.360;30.424;2024-02-04T09:34:12;1009.8;;;7.8;57.8
74437;BME280;62868;52.360;30.424;2024-02-04T09:39:00;1009.8;;;7.6;57.9
74437;BME280;62868;52.360;30.424;2024-02-04T09:44:10;1009.8;;;7.6;57.8
74437;BME280;62868;52.360;30.424;2024-02-04T09:49:38;1009.8;;;7.5;57.8
74437;BME280;62868;52.360;30.424;2024-02-04T09:54:02;1009.7;;;7.6;57.5
74437;BME280;62868;52.360;30.424;2024-02-04T09:59:16;1009.7;;;7.9;57.2
74437;BME280;62868;52.360;30.424;2024-02-04T10:04:38;1009.6;;;8.2;57
74437;BME280;62868;52.360;30.424;2024-02-04T10:09:24;1009.7;;;8.2;56.8
74437;BME280;62868;52.360;30.424;2024-02-04T10:14:38;1009.5;;;8;56.9
74437;BME280;62868;52.360;30.424;2024-02-04T10:19:26;1009.4;;;8;56.6
74437;BME280;62868;52.360;30.424;2024-02-04T10:24:30;1009.4;;;8.3;56.1
74437;BME280;62868;52.360;30.424;2024-02-04T10:29:00;1009.3;;;8.6;55.8
74437;BME280;62868;52.360;30.424;2024-02-04T10:34:02;1009.4;;;8.7;55.6
74437;BME280;62868;52.360;30.424;2024-02-04T10:39:38;1009.4;;;8.9;55.4
74437;BME280;62868;52.360;30.424;2024-02-04T10:44:38;1009.4;;;9.1;55.2
74437;BME280;62868;52.360;30.424;2024-02-04T10:49:00;1009.4;;;9.2;55.2
74437;BME280;62868;52.360;30.424;2024-02-04T10:54:38;1009.4;;;9.1;55
74437;BME280;62868;52.360;30.424;2024-02-04T10:59:38;1009.4;;;8.9;54.9
74437;BME280;62868;52.360;30.424;2024-02-04T11:04:10;1009.5;;;8.8;54.9
74437;BME280;62868;52.360;30.424;2024-02-04T11:09:20;1009.5;;;8.6;54.9
74437;BME280;62868;52.360;30.424;2024-02-04T11:14:00;1009.5;;;8.4;54.9
74437;BME280;62868;52.360;30.424;2024-02-04T11:19:19;1009.6;;;8.2;54.9
74437;BME280;62868;52.360;30.424;2024-02-04T11:24:10;1009.6;;;7.9;55
74437;BME280;62868;52.360;30.424;2024-02-04T11:29:00;1009.6;;;7.8;54.9
74437;BME280;62868;52.360;30.424;2024-02-04T11:34:12;1009.6;;;7.9;54.9
74437;BME280;62868;52.360;30.424;2024-02-04T11:39:24;1009.7;;;7.7;55
74437;BME280;62868;52.360;30.424;2024-02-04T11:44:00;1009.8;;;7.5;55.1
74437;BME280;62868;52.360;30.424;2024-02-04T11:49:36;1009.8;;;7.4;55.1
74437;BME280;62868;52.360;30.424;2024-02-04T11:54:28;1009.8;;;7.3;55.2
74437;BME280;62868;52.360;30.424;2024-02-04T11:59:24;1009.8;;;7.2;55.2
74437;BME280;62868;52.360;30.424;2024-02-04T12:04:30;1009.8;;;7.2;55.2
74437;BME280;62868;52.360;30.424;2024-02-04T12:09:10;1009.7;;;7;55.3
74437;BME280;62868;52.360;30.424;2024-02-04T12:14:30;1009.8;;;7;55.3
74437;BME280;62868;52.360;30.424;2024-02-04T12:19:08;1009.8;;;7;55.3
74437;BME280;62868;52.360;30.424;2024-02-04T12:24:00;1009.7;;;7;55.3
74437;BME280;62868;52.360;30.424;2024-02-04T12:29:30;1009.6;;;7.1;55.1
74437;BME280;62868;52.360;30.424;2024-02-04T12:34:38;1009.6;;;7.2;55
74437;BME280;62868;52.360;30.424;2024-02-04T12:39:20;1009.5;;;7.4;54.8
74437;BME280;62868;52.360;30.424;2024-02-04T12:44:02;1009.5;;;7.4;54.8
74437;BME280;62868;52.360;30.424;2024-02-04T12:49:08;1009.5;;;7.4;54.8
74437;BME280;62868;52.360;30.424;2024-02-04T12:54:01;1009.5;;;7.4;54.8
74437;BME280;62868;52.360;30.424;2024-02-04T12:59:00;1009.6;;;7.4;54.8
74437;BME280;62868;52.360;30.424;2024-02-04T13:04:00;1009.6;;;7.3;54.9
74437;BME280;62868;52.360;30.424;2024-02-04T13:09:08;1009.5;;;7.3;54.9
74437;BME280;62868;52.360;30.424;2024-02-04T13:14:38;1009.5;;;7.2;54.9
74437;BME280;62868;52.360;30.424;2024-02-04T13:19:14;1009.5;;;7.1;54.9
74437;BME280;62868;52.360;30.424;2024-02-04T13:24:38;1009.5;;;7;55
74437;BME280;62868;52.360;30.424;2024-02-04T13:29:38;1009.4;;;6.9;55
74437;BME280;62868;52.360;30.424;2024-02-04T13:34:14;1009.4;;;7;54.9
74437;BME280;62868;52.360;30.424;2024-02-04T13:39:38;1009.3;;;7;55
74437;BME280;62868;52.360;30.424;2024-02-04T13:44:38;1009.4;;;7;55
74437;BME280;62868;52.360;30.424;2024-02-04T13:49:02;1009.4;;;6.9;55.1
74437;BME280;62868;52.360;30.424;2024-02-04T13:54:16;1009.3;;;6.8;55.1
74437;BME280;62868;52.360;30.424;2024-02-04T13:59:12;1009.3;;;6.8;55.2
74437;BME280;62868;52.360;30.424;2024-02-04T14:04:30;1009.3;;;6.7;55.2
74437;BME280;62868;52.360;30.424;2024-02-04T14:09:38;1009.3;;;6.6;55.3
74437;BME280;62868;52.360;30.424;2024-02-04T14:14:08;1009.3;;;6.5;55.4
74437;BME280;62868;52.360;30.424;2024-02-04T14:19:38;1009.3;;;6.4;55.5
74437;BME280;62868;52.360;30.424;2024-02-04T14:24:08;1009.3;;;6.4;55.6
74437;BME280;62868;52.360;30.424;2024-02-04T14:29:08;1009.3;;;6.3;55.6
74437;BME280;62868;52.360;30.424;2024-02-04T14:34:12;1009.2;;;6.3;55.7
74437;BME280;62868;52.360;30.424;2024-02-04T14:39:00;1009.2;;;6.2;55.7
74437;BME280;62868;52.360;30.424;2024-02-04T14:44:00;1009.2;;;6.1;55.8
74437;BME280;62868;52.360;30.424;2024-02-04T14:49:30;1009.2;;;6.1;56
74437;BME280;62868;52.360;30.424;2024-02-04T14:54:30;1009.2;;;6;56.1
74437;BME280;62868;52.360;30.424;2024-02-04T14:59:38;1009.2;;;5.9;56.2
74437;BME280;62868;52.360;30.424;2024-02-04T15:04:38;1009.2;;;5.9;56.3
74437;BME280;62868;52.360;30.424;2024-02-04T15:09:08;1009.2;;;5.8;56.3
74437;BME280;62868;52.360;30.424;2024-02-04T15:14:38;1009.2;;;5.8;56.4
74437;BME280;62868;52.360;30.424;2024-02-04T15:19:38;1009.1;;;5.7;56.5
74437;BME280;62868;52.360;30.424;2024-02-04T15:24:30;1009.1;;;5.7;56.6
74437;BME280;62868;52.360;30.424;2024-02-04T15:29:16;1009.2;;;5.7;56.6
74437;BME280;62868;52.360;30.424;2024-02-04T15:34:26;1009.2;;;5.7;56.7
74437;BME280;62868;52.360;30.424;2024-02-04T15:39:20;1009.2;;;5.6;56.8
74437;BME280;62868;52.360;30.424;2024-02-04T15:44:27;1009.2;;;5.7;56.8
74437;BME280;62868;52.360;30.424;2024-02-04T15:49:20;1009.1;;;5.6;56.9
74437;BME280;62868;52.360;30.424;2024-02-04T15:54:38;1009.1;;;5.6;56.9
74437;BME280;62868;52.360;30.424;2024-02-04T15:59:21;1009.1;;;5.6;57
74437;BME280;62868;52.360;30.424;2024-02-04T16:04:26;1009;;;5.6;57.1
74437;BME280;62868;52.360;30.424;2024-02-04T16:09:20;1009;;;5.6;57.1
74437;BME280;62868;52.360;30.424;2024-02-04T16:14:00;1009;;;5.5;57.2
74437;BME280;62868;52.360;30.424;2024-02-04T16:19:20;1008.9;;;5.5;57.3
74437;BME280;62868;52.360;30.424;2024-02-04T16:24:00;1008.8;;;5.5;57.3
74437;BME280;62868;52.360;30.424;2024-02-04T16:29:30;1008.8;;;5.4;57.5
74437;BME280;62868;52.360;30.424;2024-02-04T16:34:16;1008.7;;;5.4;57.6
74437;BME280;62868;52.360;30.424;2024-02-04T16:39:38;1008.6;;;5.4;57.7
74437;BME280;62868;52.360;30.424;2024-02-04T16:44:08;1008.5;;;5.4;57.8
74437;BME280;62868;52.360;30.424;2024-02-04T16:49:38;1008.5;;;5.4;57.9
74437;BME280;62868;52.360;30.424;2024-02-04T16:54:00;1008.4;;;5.3;58.1
74437;BME280;62868;52.360;30.424;2024-02-04T16:59:30;1008.4;;;5.4;58.2
74437;BME280;62868;52.360;30.424;2024-02-04T17:04:08;1008.3;;;5.3;58.3
74437;BME280;62868;52.360;30.424;2024-02-04T17:09:26;1008.2;;;5.3;58.5
74437;BME280;62868;52.360;30.424;2024-02-04T17:14:38;1008.2;;;5.2;58.7
74437;BME280;62868;52.360;30.424;2024-02-04T17:19:33;1008.1;;;5.1;58.9
74437;BME280;62868;52.360;30.424;2024-02-04T17:24:03;1008;;;5.1;59
74437;BME280;62868;52.360;30.424;2024-02-04T17:29:38;1008;;;5.1;59.1
74437;BME280;62868;52.360;30.424;2024-02-04T17:34:38;1007.9;;;5.1;59.1
74437;BME280;62868;52.360;30.424;2024-02-04T17:39:10;1007.8;;;5.1;59.2
74437;BME280;62868;52.360;30.424;2024-02-04T17:44:20;1007.8;;;5.1;59.3
74437;BME280;62868;52.360;30.424;2024-02-04T17:49:08;1007.7;;;5.1;59.4
74437;BME280;62868;52.360;30.424;2024-02-04T17:54:08;1007.7;;;5;59.6
74437;BME280;62868;52.360;30.424;2024-02-04T17:59:00;1007.7;;;5;59.9
74437;BME280;62868;52.360;30.424;2024-02-04T18:04:40;1007.7;;;4.9;60.1
74437;BME280;62868;52.360;30.424;2024-02-04T18:09:08;1007.6;;;4.9;60.2
74437;BME280;62868;52.360;30.424;2024-02-04T18:14:40;1007.6;;;4.9;60.4
74437;BME280;62868;52.360;30.424;2024-02-04T18:19:30;1007.4;;;4.8;60.7
74437;BME280;62868;52.360;30.424;2024-02-04T18:24:40;1007.3;;;4.8;61
74437;BME280;62868;52.360;30.424;2024-02-04T18:29:16;1007.2;;;4.7;61.1
74437;BME280;62868;52.360;30.424;2024-02-04T18:34:40;1007.1;;;4.7;61.4
74437;BME280;62868;52.360;30.424;2024-02-04T18:39:22;1007.1;;;4.7;61.6
74437;BME280;62868;52.360;30.424;2024-02-04T18:44:26;1007;;;4.8;61.7
74437;BME280;62868;52.360;30.424;2024-02-04T18:49:28;1006.9;;;4.8;61.8
74437;BME280;62868;52.360;30.424;2024-02-04T18:54:32;1006.8;;;4.8;61.9
74437;BME280;62868;52.360;30.424;2024-02-04T18:59:12;1006.7;;;4.8;62
74437;BME280;62868;52.360;30.424;2024-02-04T19:04:40;1006.5;;;4.8;62.1
74437;BME280;62868;52.360;30.424;2024-02-04T19:09:32;1006.4;;;4.8;62.2
74437;BME280;62868;52.360;30.424;2024-02-04T19:14:30;1006.3;;;4.8;62.3
74437;BME280;62868;52.360;30.424;2024-02-04T19:19:00;1006.2;;;4.8;62.3
74437;BME280;62868;52.360;30.424;2024-02-04T19:24:08;1006.1;;;4.8;62.5
74437;BME280;62868;52.360;30.424;2024-02-04T19:29:00;1006;;;4.9;62.5
74437;BME280;62868;52.360;30.424;2024-02-04T19:34:00;1005.9;;;4.9;62.5
74437;BME280;62868;52.360;30.424;2024-02-04T19:39:00;1005.8;;;4.8;62.6
74437;BME280;62868;52.360;30.424;2024-02-04T19:44:16;1005.6;;;4.8;62.7
74437;BME280;62868;52.360;30.424;2024-02-04T19:49:26;1005.4;;;4.8;62.7
74437;BME280;62868;52.360;30.424;2024-02-04T19:54:26;1005.3;;;4.8;62.8
74437;BME280;62868;52.360;30.424;2024-02-04T19:59:40;1005.2;;;4.8;62.9
74437;BME280;62868;52.360;30.424;2024-02-04T20:04:30;1005.1;;;4.9;62.9
74437;BME280;62868;52.360;30.424;2024-02-04T20:09:18;1005;;;4.9;63
74437;BME280;62868;52.360;30.424;2024-02-04T20:14:30;1004.9;;;4.9;63
74437;BME280;62868;52.360;30.424;2024-02-04T20:19:10;1004.7;;;4.9;63
74437;BME280;62868;52.360;30.424;2024-02-04T20:24:30;1004.7;;;4.9;63
74437;BME280;62868;52.360;30.424;2024-02-04T20:29:16;1004.5;;;4.9;63.1
74437;BME280;62868;52.360;30.424;2024-02-04T20:34:20;1004.5;;;4.9;63.2
74437;BME280;62868;52.360;30.424;2024-02-04T20:39:30;1004.4;;;4.9;63.3
74437;BME280;62868;52.360;30.424;2024-02-04T20:44:40;1004.3;;;4.9;63.4
74437;BME280;62868;52.360;30.424;2024-02-04T20:49:12;1004.2;;;4.9;63.4
74437;BME280;62868;52.360;30.424;2024-02-04T20:54:30;1004;;;4.9;63.4
74437;BME280;62868;52.360;30.424;2024-02-04T20:59:00;1003.9;;;4.8;63.5
74437;BME280;62868;52.360;30.424;2024-02-04T21:04:08;1003.7;;;4.8;63.6
74437;BME280;62868;52.360;30.424;2024-02-04T21:09:08;1003.6;;;4.7;63.7
74437;BME280;62868;52.360;30.424;2024-02-04T21:14:40;1003.5;;;4.7;63.8
74437;BME280;62868;52.360;30.424;2024-02-04T21:19:12;1003.4;;;4.6;64
74437;BME280;62868;52.360;30.424;2024-02-04T21:24:40;1003.3;;;4.6;64.1
74437;BME280;62868;52.360;30.424;2024-02-04T21:29:30;1003.1;;;4.5;64.3
74437;BME280;62868;52.360;30.424;2024-02-04T21:34:40;1003.1;;;4.5;64.5
74437;BME280;62868;52.360;30.424;2024-02-04T21:39:12;1003;;;4.5;64.6
74437;BME280;62868;52.360;30.424;2024-02-04T21:44:08;1002.9;;;4.5;64.6
74437;BME280;62868;52.360;30.424;2024-02-04T21:49:40;1002.9;;;4.5;64.8
74437;BME280;62868;52.360;30.424;2024-02-04T21:54:40;1002.8;;;4.5;64.9
74437;BME280;62868;52.360;30.424;2024-02-04T21:59:30;1002.8;;;4.4;65
74437;BME280;62868;52.360;30.424;2024-02-04T22:04:00;1002.7;;;4.4;65.2
74437;BME280;62868;52.360;30.424;2024-02-04T22:09:00;1002.6;;;4.4;65.3
74437;BME280;62868;52.360;30.424;2024-02-04T22:14:30;1002.5;;;4.4;65.3
74437;BME280;62868;52.360;30.424;2024-02-04T22:19:40;1002.5;;;4.4;65.4
74437;BME280;62868;52.360;30.424;2024-02-04T22:24:01;1002.4;;;4.4;65.5
74437;BME280;62868;52.360;30.424;2024-02-04T22:29:30;1002.3;;;4.4;65.6
74437;BME280;62868;52.360;30.424;2024-02-04T22:34:18;1002.3;;;4.4;65.7
74437;BME280;62868;52.360;30.424;2024-02-04T22:39:00;1002.2;;;4.3;65.8
74437;BME280;62868;52.360;30.424;2024-02-04T22:44:08;1002.2;;;4.3;65.9
74437;BME280;62868;52.360;30.424;2024-02-04T22:49:00;1002.2;;;4.3;66
74437;BME280;62868;52.360;30.424;2024-02-04T22:54:00;1002.1;;;4.3;66.1
74437;BME280;62868;52.360;30.424;2024-02-04T22:59:40;1002;;;4.4;66.1
74437;BME280;62868;52.360;30.424;2024-02-04T23:04:30;1002;;;4.4;66.1
74437;BME280;62868;52.360;30.424;2024-02-04T23:09:40;1002;;;4.5;66.1
74437;BME280;62868;52.360;30.424;2024-02-04T23:14:30;1001.9;;;4.4;66.3
74437;BME280;62868;52.360;30.424;2024-02-04T23:19:14;1001.8;;;4.5;66.3
74437;BME280;62868;52.360;30.424;2024-02-04T23:24:40;1001.7;;;4.5;66.4
74437;BME280;62868;52.360;30.424;2024-02-04T23:29:32;1001.5;;;4.5;66.5
74437;BME280;62868;52.360;30.424;2024-02-04T23:34:30;1001.6;;;4.6;66.5
74437;BME280;62868;52.360;30.424;2024-02-04T23:39:00;1001.5;;;4.7;66.5
74437;BME280;62868;52.360;30.424;2024-02-04T23:44:26;1001.5;;;4.7;66.5
74437;BME280;62868;52.360;30.424;2024-02-04T23:49:02;1001.4;;;4.8;66.5
74437;BME280;62868;52.360;30.424;2024-02-04T23:54:40;1001.3;;;4.8;66.5
74437;BME280;62868;52.360;30.424;2024-02-04T23:59:00;1001.3;;;4.9;66.6
